JNA511 RKSS-RKPC
Flight info
| Callsign | JNA511 |
|---|---|
| Flight time | 0h 44m |
| Altitude | 24000 |
| Route | BULTI2T/32R BULTI Y711 DOTOL DOTOL2M |
| Aircraft | B738/M-SDE2E3FGHIRWXY/LB1 |
Departure
| Time | 2026-05-01 10:24 |
|---|---|
| Airport | Gimpo International Airport (RKSS) |
Arrival
| Time | 2026-05-01 11:08 |
|---|---|
| Airport | Jeju International Airport (RKPC) |
| Time | Latitude | Longitude | Altitude | Speed | Heading |
|---|---|---|---|---|---|
| 2026-05-01 10:03 | 37.55962 | 126.80067 | 66 ft | 0 kts | 45° |
| 2026-05-01 10:10 | 37.55961 | 126.80067 | 66 ft | 0 kts | 45° |
| 2026-05-01 10:16 | 37.55955 | 126.80058 | 66 ft | 4 kts | 45° |
| 2026-05-01 10:17 | 37.55936 | 126.80034 | 60 ft | 4 kts | 45° |
| 2026-05-01 10:17 | 37.55903 | 126.79982 | 59 ft | 4 kts | 72° |
| 2026-05-01 10:17 | 37.55900 | 126.79951 | 58 ft | 4 kts | 115° |
| 2026-05-01 10:18 | 37.55904 | 126.79943 | 61 ft | 0 kts | 126° |
| 2026-05-01 10:19 | 37.55904 | 126.79942 | 61 ft | 0 kts | 126° |
| 2026-05-01 10:19 | 37.55904 | 126.79943 | 61 ft | 0 kts | 126° |
| 2026-05-01 10:20 | 37.55859 | 126.80009 | 64 ft | 8 kts | 133° |
| 2026-05-01 10:20 | 37.55792 | 126.80093 | 60 ft | 16 kts | 135° |
| 2026-05-01 10:20 | 37.55712 | 126.80192 | 63 ft | 16 kts | 134° |
| 2026-05-01 10:20 | 37.55631 | 126.80295 | 62 ft | 17 kts | 136° |
| 2026-05-01 10:21 | 37.55533 | 126.80369 | 60 ft | 16 kts | 139° |
| 2026-05-01 10:21 | 37.55351 | 126.80597 | 60 ft | 23 kts | 135° |
| 2026-05-01 10:21 | 37.55240 | 126.80733 | 59 ft | 22 kts | 136° |
| 2026-05-01 10:22 | 37.55030 | 126.80989 | 61 ft | 14 kts | 169° |
| 2026-05-01 10:22 | 37.54858 | 126.80798 | 59 ft | 24 kts | 226° |
| 2026-05-01 10:23 | 37.54813 | 126.80676 | 55 ft | 12 kts | 292° |
| 2026-05-01 10:23 | 37.54865 | 126.80601 | 60 ft | 19 kts | 315° |
| 2026-05-01 10:23 | 37.55121 | 126.80274 | 56 ft | 86 kts | 315° |
| 2026-05-01 10:24 | 37.56454 | 126.78642 | 362 ft | 160 kts | 311° |
| 2026-05-01 10:24 | 37.58193 | 126.76574 | 1387 ft | 182 kts | 313° |
| 2026-05-01 10:25 | 37.59925 | 126.74145 | 2170 ft | 203 kts | 310° |
| 2026-05-01 10:25 | 37.61771 | 126.71117 | 2637 ft | 238 kts | 289° |
| 2026-05-01 10:26 | 37.62056 | 126.69016 | 3177 ft | 248 kts | 267° |
| 2026-05-01 10:26 | 37.61578 | 126.66920 | 3947 ft | 257 kts | 243° |
| 2026-05-01 10:26 | 37.59154 | 126.63413 | 4964 ft | 268 kts | 230° |
| 2026-05-01 10:27 | 37.56559 | 126.60041 | 4990 ft | 272 kts | 219° |
| 2026-05-01 10:27 | 37.52800 | 126.58840 | 5742 ft | 289 kts | 189° |
| 2026-05-01 10:28 | 37.50781 | 126.58595 | 6485 ft | 292 kts | 188° |
| 2026-05-01 10:28 | 37.46683 | 126.58080 | 7905 ft | 300 kts | 189° |
| 2026-05-01 10:28 | 37.44593 | 126.57802 | 8612 ft | 305 kts | 189° |
| 2026-05-01 10:29 | 37.40276 | 126.57302 | 9997 ft | 319 kts | 179° |
| 2026-05-01 10:29 | 37.38046 | 126.57785 | 10454 ft | 336 kts | 167° |
| 2026-05-01 10:30 | 37.33166 | 126.59224 | 10801 ft | 382 kts | 168° |
| 2026-05-01 10:30 | 37.27842 | 126.60911 | 11744 ft | 402 kts | 166° |
| 2026-05-01 10:31 | 37.22416 | 126.62743 | 13134 ft | 409 kts | 166° |
| 2026-05-01 10:31 | 37.16816 | 126.64589 | 14396 ft | 420 kts | 166° |
| 2026-05-01 10:32 | 37.11114 | 126.66461 | 15769 ft | 426 kts | 167° |
| 2026-05-01 10:32 | 37.08229 | 126.67407 | 16416 ft | 431 kts | 167° |
| 2026-05-01 10:32 | 37.02405 | 126.69317 | 17659 ft | 439 kts | 167° |
| 2026-05-01 10:33 | 36.96422 | 126.71282 | 18774 ft | 448 kts | 167° |
| 2026-05-01 10:33 | 36.90332 | 126.73284 | 19810 ft | 457 kts | 167° |
| 2026-05-01 10:34 | 36.87301 | 126.74560 | 20320 ft | 463 kts | 160° |
| 2026-05-01 10:34 | 36.84314 | 126.76139 | 20808 ft | 468 kts | 158° |
| 2026-05-01 10:34 | 36.81315 | 126.77806 | 21257 ft | 473 kts | 158° |
| 2026-05-01 10:35 | 36.75225 | 126.81026 | 22173 ft | 480 kts | 160° |
| 2026-05-01 10:35 | 36.72064 | 126.82450 | 22593 ft | 481 kts | 171° |
| 2026-05-01 10:35 | 36.68762 | 126.82858 | 23047 ft | 474 kts | 185° |
| 2026-05-01 10:35 | 36.65482 | 126.82854 | 23704 ft | 471 kts | 186° |
| 2026-05-01 10:36 | 36.58862 | 126.82961 | 23918 ft | 482 kts | 184° |
| 2026-05-01 10:36 | 36.55511 | 126.83087 | 23893 ft | 491 kts | 184° |
| 2026-05-01 10:36 | 36.52063 | 126.83244 | 23917 ft | 498 kts | 182° |
| 2026-05-01 10:37 | 36.48576 | 126.83447 | 23910 ft | 498 kts | 184° |
| 2026-05-01 10:37 | 36.41665 | 126.83670 | 23920 ft | 496 kts | 184° |
| 2026-05-01 10:37 | 36.38218 | 126.83783 | 23922 ft | 494 kts | 186° |
| 2026-05-01 10:38 | 36.34792 | 126.83574 | 23910 ft | 488 kts | 192° |
| 2026-05-01 10:38 | 36.31457 | 126.83151 | 23920 ft | 487 kts | 193° |
| 2026-05-01 10:38 | 36.28083 | 126.82693 | 23931 ft | 488 kts | 193° |
| 2026-05-01 10:38 | 36.24702 | 126.82268 | 23937 ft | 488 kts | 192° |
| 2026-05-01 10:39 | 36.21310 | 126.81876 | 23938 ft | 489 kts | 192° |
| 2026-05-01 10:39 | 36.17915 | 126.81503 | 23943 ft | 490 kts | 191° |
| 2026-05-01 10:39 | 36.14510 | 126.81133 | 23932 ft | 491 kts | 192° |
| 2026-05-01 10:39 | 36.11101 | 126.80761 | 23947 ft | 491 kts | 192° |
| 2026-05-01 10:40 | 36.07695 | 126.80391 | 23956 ft | 491 kts | 192° |
| 2026-05-01 10:40 | 36.04287 | 126.80020 | 23962 ft | 492 kts | 192° |
| 2026-05-01 10:40 | 36.00866 | 126.79648 | 23961 ft | 492 kts | 192° |
| 2026-05-01 10:40 | 35.97448 | 126.79277 | 23938 ft | 493 kts | 192° |
| 2026-05-01 10:41 | 35.94035 | 126.78905 | 23953 ft | 493 kts | 192° |
| 2026-05-01 10:41 | 35.90613 | 126.78534 | 23956 ft | 493 kts | 192° |
| 2026-05-01 10:41 | 35.83804 | 126.77798 | 23968 ft | 493 kts | 192° |
| 2026-05-01 10:42 | 35.80386 | 126.77430 | 23970 ft | 493 kts | 192° |
| 2026-05-01 10:42 | 35.76965 | 126.77061 | 23954 ft | 493 kts | 191° |
| 2026-05-01 10:42 | 35.73542 | 126.76693 | 23967 ft | 492 kts | 191° |
| 2026-05-01 10:42 | 35.70129 | 126.76327 | 23971 ft | 492 kts | 191° |
| 2026-05-01 10:43 | 35.66739 | 126.75963 | 23978 ft | 492 kts | 192° |
| 2026-05-01 10:43 | 35.63325 | 126.75596 | 23979 ft | 492 kts | 191° |
| 2026-05-01 10:43 | 35.59911 | 126.75230 | 23972 ft | 492 kts | 192° |
| 2026-05-01 10:43 | 35.56504 | 126.74864 | 23960 ft | 491 kts | 192° |
| 2026-05-01 10:44 | 35.53104 | 126.74500 | 23966 ft | 490 kts | 191° |
| 2026-05-01 10:44 | 35.49695 | 126.74136 | 23967 ft | 489 kts | 191° |
| 2026-05-01 10:44 | 35.46342 | 126.73779 | 23970 ft | 488 kts | 191° |
| 2026-05-01 10:44 | 35.42961 | 126.73414 | 23962 ft | 488 kts | 191° |
| 2026-05-01 10:45 | 35.39582 | 126.73056 | 23958 ft | 487 kts | 191° |
| 2026-05-01 10:45 | 35.36207 | 126.72705 | 23966 ft | 486 kts | 191° |
| 2026-05-01 10:45 | 35.32837 | 126.72355 | 23973 ft | 484 kts | 192° |
| 2026-05-01 10:45 | 35.29477 | 126.71997 | 23968 ft | 484 kts | 191° |
| 2026-05-01 10:46 | 35.26117 | 126.71639 | 23974 ft | 484 kts | 191° |
| 2026-05-01 10:46 | 35.22821 | 126.71291 | 23959 ft | 470 kts | 192° |
| 2026-05-01 10:46 | 35.19620 | 126.70959 | 23928 ft | 453 kts | 192° |
| 2026-05-01 10:46 | 35.16459 | 126.70624 | 23976 ft | 458 kts | 192° |
| 2026-05-01 10:47 | 35.13239 | 126.70275 | 23984 ft | 468 kts | 192° |
| 2026-05-01 10:47 | 35.10000 | 126.69930 | 23989 ft | 477 kts | 191° |
| 2026-05-01 10:47 | 35.06635 | 126.69832 | 23982 ft | 489 kts | 185° |
| 2026-05-01 10:47 | 35.03220 | 126.69989 | 23976 ft | 492 kts | 182° |
| 2026-05-01 10:48 | 34.99800 | 126.70232 | 23976 ft | 491 kts | 183° |
| 2026-05-01 10:48 | 34.97496 | 126.70375 | 23973 ft | 490 kts | 183° |
| 2026-05-01 10:48 | 34.94140 | 126.70561 | 23972 ft | 489 kts | 184° |
| 2026-05-01 10:48 | 34.90776 | 126.70731 | 23715 ft | 478 kts | 184° |
| 2026-05-01 10:49 | 34.87474 | 126.70885 | 23147 ft | 471 kts | 184° |
| 2026-05-01 10:49 | 34.84210 | 126.71027 | 22552 ft | 465 kts | 184° |
| 2026-05-01 10:49 | 34.80974 | 126.71164 | 21944 ft | 460 kts | 184° |
| 2026-05-01 10:49 | 34.77722 | 126.71293 | 21326 ft | 470 kts | 183° |
| 2026-05-01 10:50 | 34.74517 | 126.71359 | 20725 ft | 462 kts | 185° |
| 2026-05-01 10:50 | 34.71315 | 126.71427 | 20145 ft | 457 kts | 182° |
| 2026-05-01 10:50 | 34.68153 | 126.71573 | 19557 ft | 452 kts | 182° |
| 2026-05-01 10:50 | 34.65025 | 126.71747 | 18984 ft | 447 kts | 181° |
| 2026-05-01 10:51 | 34.61921 | 126.71915 | 18393 ft | 444 kts | 181° |
| 2026-05-01 10:51 | 34.58844 | 126.72071 | 17730 ft | 440 kts | 181° |
| 2026-05-01 10:51 | 34.55790 | 126.72220 | 17097 ft | 435 kts | 182° |
| 2026-05-01 10:51 | 34.52783 | 126.72358 | 16521 ft | 429 kts | 181° |
| 2026-05-01 10:52 | 34.49847 | 126.72487 | 15959 ft | 425 kts | 181° |
| 2026-05-01 10:52 | 34.46900 | 126.72615 | 15389 ft | 420 kts | 181° |
| 2026-05-01 10:52 | 34.43990 | 126.72738 | 14841 ft | 416 kts | 181° |
| 2026-05-01 10:52 | 34.41110 | 126.72860 | 14275 ft | 413 kts | 181° |
| 2026-05-01 10:53 | 34.38243 | 126.72981 | 13704 ft | 410 kts | 181° |
| 2026-05-01 10:53 | 34.35397 | 126.73101 | 13086 ft | 407 kts | 180° |
| 2026-05-01 10:53 | 34.32582 | 126.73220 | 12516 ft | 403 kts | 180° |
| 2026-05-01 10:53 | 34.29789 | 126.73338 | 11955 ft | 399 kts | 179° |
| 2026-05-01 10:54 | 34.27017 | 126.73455 | 11412 ft | 396 kts | 179° |
| 2026-05-01 10:54 | 34.24279 | 126.73571 | 10966 ft | 390 kts | 179° |
| 2026-05-01 10:54 | 34.21612 | 126.73685 | 10808 ft | 376 kts | 179° |
| 2026-05-01 10:54 | 34.19067 | 126.73794 | 10624 ft | 364 kts | 178° |
| 2026-05-01 10:55 | 34.16545 | 126.73901 | 10465 ft | 350 kts | 178° |
| 2026-05-01 10:55 | 34.14203 | 126.74000 | 10303 ft | 332 kts | 178° |
| 2026-05-01 10:55 | 34.11943 | 126.74095 | 10162 ft | 316 kts | 178° |
| 2026-05-01 10:55 | 34.09771 | 126.74187 | 10049 ft | 307 kts | 178° |
| 2026-05-01 10:56 | 34.07653 | 126.74276 | 9851 ft | 302 kts | 177° |
| 2026-05-01 10:56 | 34.05557 | 126.74366 | 9552 ft | 301 kts | 178° |
| 2026-05-01 10:56 | 34.03491 | 126.74454 | 9266 ft | 299 kts | 178° |
| 2026-05-01 10:56 | 34.01414 | 126.74542 | 8992 ft | 297 kts | 178° |
| 2026-05-01 10:57 | 33.99351 | 126.74629 | 8695 ft | 296 kts | 178° |
| 2026-05-01 10:57 | 33.97298 | 126.74716 | 8411 ft | 295 kts | 178° |
| 2026-05-01 10:57 | 33.95250 | 126.74803 | 8130 ft | 293 kts | 178° |
| 2026-05-01 10:57 | 33.93205 | 126.74889 | 7835 ft | 292 kts | 178° |
| 2026-05-01 10:58 | 33.91195 | 126.74974 | 7553 ft | 291 kts | 178° |
| 2026-05-01 10:58 | 33.89169 | 126.75060 | 7290 ft | 289 kts | 178° |
| 2026-05-01 10:58 | 33.87216 | 126.75142 | 7231 ft | 273 kts | 179° |
| 2026-05-01 10:58 | 33.85362 | 126.75221 | 7123 ft | 260 kts | 179° |
| 2026-05-01 10:59 | 33.83590 | 126.75296 | 7020 ft | 247 kts | 179° |
| 2026-05-01 10:59 | 33.81921 | 126.75367 | 6932 ft | 232 kts | 179° |
| 2026-05-01 10:59 | 33.80346 | 126.75433 | 6708 ft | 223 kts | 179° |
| 2026-05-01 10:59 | 33.78801 | 126.75498 | 6383 ft | 221 kts | 179° |
| 2026-05-01 11:00 | 33.77281 | 126.75561 | 6074 ft | 219 kts | 179° |
| 2026-05-01 11:00 | 33.75800 | 126.75624 | 5959 ft | 207 kts | 179° |
| 2026-05-01 11:00 | 33.74373 | 126.75684 | 5691 ft | 204 kts | 180° |
| 2026-05-01 11:00 | 33.72958 | 126.75743 | 5391 ft | 204 kts | 180° |
| 2026-05-01 11:01 | 33.71494 | 126.75803 | 5052 ft | 208 kts | 179° |
| 2026-05-01 11:01 | 33.70064 | 126.75864 | 4980 ft | 203 kts | 179° |
| 2026-05-01 11:01 | 33.68666 | 126.75923 | 4888 ft | 200 kts | 180° |
| 2026-05-01 11:01 | 33.67261 | 126.75982 | 4758 ft | 206 kts | 180° |
| 2026-05-01 11:02 | 33.65825 | 126.76000 | 4551 ft | 205 kts | 191° |
| 2026-05-01 11:02 | 33.64651 | 126.75280 | 4329 ft | 184 kts | 240° |
| 2026-05-01 11:02 | 33.63974 | 126.74021 | 4204 ft | 180 kts | 242° |
| 2026-05-01 11:02 | 33.63295 | 126.72766 | 4057 ft | 177 kts | 243° |
| 2026-05-01 11:03 | 33.62633 | 126.71510 | 4031 ft | 179 kts | 243° |
| 2026-05-01 11:03 | 33.61968 | 126.70226 | 3949 ft | 182 kts | 243° |
| 2026-05-01 11:03 | 33.61305 | 126.68939 | 3730 ft | 180 kts | 243° |
| 2026-05-01 11:03 | 33.60648 | 126.67659 | 3494 ft | 178 kts | 243° |
| 2026-05-01 11:04 | 33.60005 | 126.66408 | 3259 ft | 174 kts | 244° |
| 2026-05-01 11:04 | 33.59396 | 126.65221 | 3024 ft | 165 kts | 244° |
| 2026-05-01 11:04 | 33.58806 | 126.64070 | 2810 ft | 160 kts | 245° |
| 2026-05-01 11:04 | 33.58224 | 126.62933 | 2602 ft | 159 kts | 245° |
| 2026-05-01 11:05 | 33.57661 | 126.61836 | 2396 ft | 150 kts | 245° |
| 2026-05-01 11:05 | 33.57131 | 126.60801 | 2224 ft | 145 kts | 246° |
| 2026-05-01 11:05 | 33.56612 | 126.59788 | 2037 ft | 139 kts | 245° |
| 2026-05-01 11:05 | 33.56116 | 126.58817 | 1827 ft | 134 kts | 243° |
| 2026-05-01 11:06 | 33.55633 | 126.57872 | 1644 ft | 136 kts | 241° |
| 2026-05-01 11:06 | 33.55135 | 126.56900 | 1463 ft | 137 kts | 240° |
| 2026-05-01 11:06 | 33.54641 | 126.55935 | 1290 ft | 135 kts | 239° |
| 2026-05-01 11:07 | 33.53656 | 126.54012 | 938 ft | 134 kts | 241° |
| 2026-05-01 11:07 | 33.53180 | 126.53062 | 741 ft | 132 kts | 240° |
| 2026-05-01 11:07 | 33.52707 | 126.52149 | 579 ft | 127 kts | 239° |
| 2026-05-01 11:07 | 33.52244 | 126.51217 | 413 ft | 131 kts | 237° |
| 2026-05-01 11:08 | 33.51745 | 126.50273 | 248 ft | 136 kts | 238° |
| 2026-05-01 11:08 | 33.51271 | 126.49334 | 91 ft | 123 kts | 238° |
| 2026-05-01 11:08 | 33.50658 | 126.48144 | 91 ft | 41 kts | 238° |
| 2026-05-01 11:09 | 33.50484 | 126.47954 | 93 ft | 32 kts | 211° |
| 2026-05-01 11:09 | 33.50381 | 126.47961 | 93 ft | 12 kts | 94° |
| 2026-05-01 11:09 | 33.50415 | 126.48047 | 96 ft | 13 kts | 58° |
| 2026-05-01 11:10 | 33.50549 | 126.48306 | 92 ft | 26 kts | 58° |
| 2026-05-01 11:10 | 33.50647 | 126.48498 | 92 ft | 27 kts | 58° |
| 2026-05-01 11:10 | 33.50739 | 126.48679 | 93 ft | 25 kts | 58° |
| 2026-05-01 11:10 | 33.50826 | 126.48848 | 93 ft | 23 kts | 58° |
| 2026-05-01 11:11 | 33.50911 | 126.49010 | 92 ft | 22 kts | 58° |
| 2026-05-01 11:11 | 33.50990 | 126.49170 | 93 ft | 25 kts | 58° |
| 2026-05-01 11:11 | 33.51028 | 126.49344 | 94 ft | 20 kts | 141° |
| 2026-05-01 11:11 | 33.50942 | 126.49415 | 92 ft | 11 kts | 136° |
| 2026-05-01 11:12 | 33.50869 | 126.49438 | 92 ft | 10 kts | 177° |
| 2026-05-01 11:12 | 33.50810 | 126.49441 | 92 ft | 2 kts | 177° |
| 2026-05-01 11:12 | 33.50808 | 126.49441 | 92 ft | 0 kts | 177° |